Aérodrome :
LOGIN :

S'inscrire | Disclaimer

   EN    FR    IT 

 










Légende :    VFR   VFR Marginal   IFR   IFR Intensif   IFR Très Intensif
Visi : 
Plafond : 
>= 8 km
>= 3000ft
5 à 8 km
1000 à 3000 ft
1500m à 5 km
500 à 1000 ft
800 à 1500m
200 à 500 ft
< 800m
< 200 ft
Symboles :   Orages  Brouillard  Fortes neiges  Fortes précipitations  Vent > 20 kt
SIGMETs :   Divers  Orages  Givrage  Turbulence  Onde Orograph.  Cendres Volcan.






- Altitude de l'aérodrome : 670 ft
- Code IATA : MSQ


UMMS - Minsk - 2

DERNIER METAR :
  • 290230Z 29002MPS 250V320 8000 NSC 03/00 Q1009 R88/D NOSIG

METARs EXPIRÉS :
  • 290200Z 31002MPS 8000 NSC 03/M01 Q1009 R88/D NOSIG
  • 290130Z 33001MPS 8000 NSC 03/M01 Q1010 R88/CLRD// NOSIG
  • 290100Z 30002MPS 8000 NSC 03/00 Q1010 R88/CLRD// NOSIG

TAF TAF UMMS
Valide du 29 à 00h jusqu'au 30 à 00h UTC


282303Z 2900/2924 VRB02MPS 9999 SCT030
TEMPO 2900/2906 3000 BR BKN004
BECMG 2906/2908 36005G10MPS BKN020
TEMPO 2908/2918 36009G14MPS
TEMPO 2918/2924 36009G14MPS 3000 -SHRA BKN005 BKN015CB



MET'MAP, la Météo Aéronautique d'un coup d'oeil ! - Copyright ORBIFLY Décembre 2007 - Disclaimer

ORBIFLY MET'MAP TEAM :

Programmation & Développement : Alexandra Zaïnal
Sur une idée originale de : Baudouin d'Aumeries
Assistance à la programmation : Marc-Olivier Méhu
Soutien technique & logistique : Manuel Goepfert

Contact : metmap@orbifly.com




SOURCES & CREDITS :

   NOAA